createdAt,value
2019-04-07T00:01:57.321Z,96.60
2019-04-07T00:04:27.169Z,96.70
2019-04-07T00:06:56.685Z,97.10
2019-04-07T00:09:27.580Z,97.50
2019-04-07T00:11:57.104Z,97.90
2019-04-07T00:14:27.177Z,98.70
2019-04-07T00:16:56.952Z,98.80
2019-04-07T00:19:26.259Z,99.30
2019-04-07T00:21:55.789Z,99.50
2019-04-07T00:24:25.217Z,99.80
2019-04-07T00:26:54.521Z,99.90
2019-04-07T00:29:23.927Z,99.90
2019-04-07T00:31:53.203Z,99.90
2019-04-07T00:34:22.535Z,99.90
2019-04-07T00:36:52.187Z,99.90
2019-04-07T00:39:21.476Z,99.90
2019-04-07T00:41:50.885Z,99.90
2019-04-07T00:44:20.271Z,99.90
2019-04-07T00:46:49.922Z,99.90
2019-04-07T00:49:19.335Z,99.90
2019-04-07T00:51:49.725Z,99.90
2019-04-07T00:54:19.146Z,99.90
2019-04-07T00:56:49.056Z,99.90
2019-04-07T00:59:18.526Z,99.90
2019-04-07T01:01:47.938Z,99.90
2019-04-07T01:04:17.349Z,99.90
2019-04-07T01:06:47.318Z,99.90
2019-04-07T01:09:17.243Z,99.90
2019-04-07T01:11:46.605Z,99.90
2019-04-07T01:14:16.070Z,99.90
2019-04-07T01:16:45.672Z,99.90
2019-04-07T01:19:15.060Z,99.90
2019-04-07T01:21:44.585Z,99.90
2019-04-07T01:24:14.430Z,99.90
2019-04-07T01:26:43.859Z,99.90
2019-04-07T01:29:13.493Z,99.90
2019-04-07T01:31:43.100Z,99.90
2019-04-07T01:34:13.369Z,99.90
2019-04-07T01:36:42.963Z,99.90
2019-04-07T01:39:12.925Z,99.90
2019-04-07T01:41:51.089Z,99.90
2019-04-07T01:44:28.460Z,99.90
2019-04-07T01:47:13.478Z,99.90
2019-04-07T01:50:00.739Z,99.90
2019-04-07T01:52:52.316Z,99.90
2019-04-07T01:55:29.922Z,99.90
2019-04-07T01:58:17.365Z,99.90
2019-04-07T02:01:08.737Z,99.90
2019-04-07T02:03:54.542Z,99.90
2019-04-07T02:06:40.038Z,99.90
2019-04-07T02:09:31.702Z,99.90
2019-04-07T02:12:23.283Z,99.90
2019-04-07T02:15:21.692Z,99.90
2019-04-07T02:17:56.993Z,99.90
2019-04-07T02:20:58.996Z,99.90
2019-04-07T02:23:47.128Z,99.90
2019-04-07T02:26:34.383Z,99.90
2019-04-07T02:29:32.443Z,99.90
2019-04-07T02:32:23.529Z,99.90
2019-04-07T02:35:01.373Z,99.90
2019-04-07T02:37:42.612Z,99.90
2019-04-07T02:40:27.362Z,99.90
2019-04-07T02:43:27.940Z,99.90
2019-04-07T02:46:04.234Z,99.90
2019-04-07T02:49:08.223Z,99.90
2019-04-07T02:51:56.149Z,99.90
2019-04-07T02:54:52.870Z,99.90
2019-04-07T02:57:29.410Z,99.90
2019-04-07T03:00:15.965Z,99.90
2019-04-07T03:03:03.263Z,99.90
2019-04-07T03:05:40.507Z,99.90
2019-04-07T03:08:44.081Z,99.90
2019-04-07T03:11:35.425Z,99.90
2019-04-07T03:14:14.126Z,99.90
2019-04-07T03:17:20.862Z,99.90
2019-04-07T03:19:58.089Z,99.90
2019-04-07T03:22:55.292Z,99.90
2019-04-07T03:25:42.274Z,99.90
2019-04-07T03:28:40.010Z,99.90
2019-04-07T03:31:32.907Z,99.90
2019-04-07T03:34:11.600Z,99.90
2019-04-07T03:37:16.981Z,99.90
2019-04-07T03:39:53.290Z,99.90
2019-04-07T03:42:31.603Z,99.90
2019-04-07T03:45:13.624Z,99.90
2019-04-07T03:47:50.497Z,99.90
2019-04-07T03:50:36.666Z,99.90
2019-04-07T03:53:25.094Z,99.90
2019-04-07T03:56:16.410Z,99.90
2019-04-07T03:59:03.696Z,99.90
2019-04-07T04:01:53.999Z,99.90
2019-04-07T04:04:41.577Z,99.90
2019-04-07T04:07:36.123Z,99.90
2019-04-07T04:10:21.212Z,99.90
2019-04-07T04:13:21.855Z,99.90
2019-04-07T04:16:10.537Z,99.90
2019-04-07T04:18:40.609Z,99.90
2019-04-07T04:21:11.190Z,99.90
2019-04-07T04:23:43.022Z,99.90
2019-04-07T04:26:11.839Z,99.90
2019-04-07T04:28:41.850Z,99.90
2019-04-07T04:31:12.987Z,99.90
2019-04-07T04:33:42.523Z,99.90
2019-04-07T04:36:11.907Z,99.90
2019-04-07T04:38:41.382Z,99.90
2019-04-07T04:41:11.239Z,99.90
2019-04-07T04:43:40.674Z,99.90
2019-04-07T04:46:11.424Z,99.90
2019-04-07T04:48:41.284Z,99.90
2019-04-07T04:51:10.685Z,99.90
2019-04-07T04:53:40.290Z,99.90
2019-04-07T04:56:09.857Z,99.90
2019-04-07T04:58:39.315Z,99.90
2019-04-07T05:01:09.652Z,99.90
2019-04-07T05:03:39.097Z,99.90
2019-04-07T05:06:09.023Z,99.90
2019-04-07T05:08:39.113Z,99.90
2019-04-07T05:11:09.139Z,99.90
2019-04-07T05:13:38.557Z,99.90
2019-04-07T05:16:08.304Z,99.90
2019-04-07T05:18:38.287Z,99.90
2019-04-07T05:21:07.699Z,99.90
2019-04-07T05:23:37.110Z,99.90
2019-04-07T05:26:06.968Z,99.90
2019-04-07T05:28:36.978Z,99.90
2019-04-07T05:31:07.349Z,99.90
2019-04-07T05:33:36.799Z,99.90
2019-04-07T05:36:06.177Z,99.90
2019-04-07T05:38:35.721Z,99.90
2019-04-07T05:41:05.413Z,99.90
2019-04-07T05:43:35.490Z,99.90
2019-04-07T05:46:06.991Z,99.90
2019-04-07T05:48:35.949Z,99.90
2019-04-07T05:51:05.553Z,99.90
2019-04-07T05:53:34.969Z,99.90
2019-04-07T05:56:04.444Z,99.90
2019-04-07T05:58:37.548Z,99.90
2019-04-07T06:01:05.216Z,99.90
2019-04-07T06:03:38.608Z,99.90
2019-04-07T06:06:07.413Z,99.90
2019-04-07T06:08:39.163Z,99.90
2019-04-07T06:11:07.937Z,99.90
2019-04-07T06:13:37.946Z,99.90
2019-04-07T06:16:08.004Z,99.90
2019-04-07T06:18:37.919Z,99.90
2019-04-07T06:21:07.762Z,99.90
2019-04-07T06:23:37.523Z,99.90
2019-04-07T06:26:11.199Z,99.90
2019-04-07T06:28:38.165Z,99.90
2019-04-07T06:31:08.247Z,99.90
2019-04-07T06:33:39.085Z,99.90
2019-04-07T06:36:09.462Z,99.90
2019-04-07T06:38:43.316Z,99.90
2019-04-07T06:41:10.447Z,99.90
2019-04-07T06:43:40.211Z,99.90
2019-04-07T06:46:32.435Z,99.90
2019-04-07T06:49:11.705Z,99.90
2019-04-07T06:52:01.953Z,99.90
2019-04-07T06:54:39.877Z,99.90
2019-04-07T06:57:35.065Z,99.90
2019-04-07T07:00:29.979Z,99.90
2019-04-07T07:03:19.085Z,99.90
2019-04-07T07:06:22.944Z,99.90
2019-04-07T07:09:20.382Z,99.90
2019-04-07T07:11:57.250Z,99.90
2019-04-07T07:14:58.343Z,99.90
2019-04-07T07:17:48.616Z,98.80
2019-04-07T07:20:46.206Z,98.40
2019-04-07T07:23:23.153Z,98.30
2019-04-07T07:25:53.023Z,97.40
2019-04-07T07:28:24.800Z,96.90
2019-04-07T07:30:54.664Z,96.30
2019-04-07T07:33:24.440Z,95.40
2019-04-07T07:35:53.809Z,95.00
2019-04-07T07:38:23.221Z,93.90
2019-04-07T07:40:52.899Z,93.30
2019-04-07T07:43:22.695Z,92.20
2019-04-07T07:45:52.267Z,90.10
2019-04-07T07:48:26.229Z,88.70
2019-04-07T07:50:52.675Z,86.50
2019-04-07T07:53:25.573Z,84.10
2019-04-07T07:55:53.235Z,83.10
2019-04-07T07:58:22.559Z,79.80
2019-04-07T08:00:52.511Z,76.90
2019-04-07T08:03:22.959Z,74.00
2019-04-07T08:05:53.074Z,71.90
2019-04-07T08:08:23.433Z,71.70
2019-04-07T08:10:56.190Z,69.60
2019-04-07T08:13:24.770Z,68.90
2019-04-07T08:15:56.765Z,65.90
2019-04-07T08:18:26.141Z,63.00
2019-04-07T08:20:55.473Z,62.00
2019-04-07T08:23:25.322Z,61.00
2019-04-07T08:25:56.061Z,60.00
2019-04-07T08:28:26.486Z,58.80
2019-04-07T08:30:56.058Z,57.70
2019-04-07T08:33:28.803Z,57.10
2019-04-07T08:35:58.030Z,55.30
2019-04-07T08:38:28.337Z,53.60
2019-04-07T08:40:58.636Z,53.30
2019-04-07T08:43:28.125Z,52.10
2019-04-07T08:45:57.960Z,50.90
2019-04-07T08:48:27.936Z,50.20
2019-04-07T08:50:59.576Z,48.90
2019-04-07T08:53:28.420Z,48.60
2019-04-07T08:55:57.755Z,48.00
2019-04-07T08:58:29.767Z,47.40
2019-04-07T09:00:58.557Z,46.00
2019-04-07T09:03:28.043Z,45.90
2019-04-07T09:05:58.291Z,46.30
2019-04-07T09:08:27.896Z,44.90
2019-04-07T09:11:20.036Z,44.20
2019-04-07T09:13:54.801Z,44.30
2019-04-07T09:16:31.200Z,44.60
2019-04-07T09:19:22.520Z,44.10
2019-04-07T09:22:09.532Z,43.90
2019-04-07T09:25:06.678Z,43.20
2019-04-07T09:27:46.065Z,42.70
2019-04-07T09:30:24.991Z,42.30
2019-04-07T09:33:11.393Z,40.90
2019-04-07T09:35:54.735Z,39.90
2019-04-07T09:38:41.186Z,39.20
2019-04-07T09:41:36.358Z,38.80
2019-04-07T09:44:25.414Z,39.90
2019-04-07T09:47:31.972Z,38.60
2019-04-07T09:50:20.437Z,38.60
2019-04-07T09:53:02.084Z,39.20
2019-04-07T09:55:57.965Z,38.90
2019-04-07T09:58:42.680Z,39.30
2019-04-07T10:01:31.867Z,36.50
2019-04-07T10:04:26.117Z,36.80
2019-04-07T10:07:18.290Z,34.80
2019-04-07T10:10:13.028Z,34.50
2019-04-07T10:13:03.085Z,34.10
2019-04-07T10:15:51.018Z,34.20
2019-04-07T10:18:40.117Z,34.40
2019-04-07T10:21:35.050Z,34.00
2019-04-07T10:24:23.641Z,33.70
2019-04-07T10:27:04.100Z,33.50
2019-04-07T10:30:01.098Z,32.10
2019-04-07T10:32:37.193Z,31.20
2019-04-07T10:35:15.687Z,31.40
2019-04-07T10:37:52.471Z,30.70
2019-04-07T10:40:37.934Z,31.00
2019-04-07T10:43:26.488Z,31.60
2019-04-07T10:46:17.985Z,31.00
2019-04-07T10:49:06.946Z,30.90
2019-04-07T10:52:03.149Z,30.70
2019-04-07T10:54:58.363Z,31.20
2019-04-07T10:57:38.005Z,31.20
2019-04-07T11:00:28.091Z,31.20
2019-04-07T11:03:15.201Z,31.30
2019-04-07T11:06:00.387Z,31.80
2019-04-07T11:08:47.648Z,31.90
2019-04-07T11:11:51.271Z,30.60
2019-04-07T11:14:45.520Z,30.00
2019-04-07T11:17:25.263Z,29.90
2019-04-07T11:20:04.486Z,30.50
2019-04-07T11:23:04.916Z,30.30
2019-04-07T11:25:45.035Z,30.50
2019-04-07T11:28:21.791Z,30.30
2019-04-07T11:31:10.270Z,31.00
2019-04-07T11:33:50.724Z,31.40
2019-04-07T11:36:34.280Z,31.50
2019-04-07T11:39:38.724Z,31.10
2019-04-07T11:42:30.641Z,30.20
2019-04-07T11:45:09.177Z,30.10
2019-04-07T11:47:52.604Z,30.60
2019-04-07T11:50:27.969Z,30.20
2019-04-07T11:53:29.391Z,30.70
2019-04-07T11:56:09.859Z,31.60
2019-04-07T11:59:00.628Z,31.50
2019-04-07T12:01:46.871Z,32.00
2019-04-07T12:04:36.837Z,33.50
2019-04-07T12:07:31.083Z,32.10
2019-04-07T12:10:14.169Z,31.40
2019-04-07T12:12:56.001Z,31.60
2019-04-07T12:15:43.007Z,31.90
2019-04-07T12:18:30.903Z,31.50
2019-04-07T12:21:22.562Z,30.80
2019-04-07T12:24:23.928Z,31.10
2019-04-07T12:27:17.267Z,31.10
2019-04-07T12:30:05.373Z,30.50
2019-04-07T12:33:06.556Z,30.10
2019-04-07T12:35:55.183Z,30.30
2019-04-07T12:38:45.134Z,31.00
2019-04-07T12:41:25.363Z,30.30
2019-04-07T12:44:31.950Z,30.30
2019-04-07T12:47:15.753Z,30.20
2019-04-07T12:50:02.049Z,30.00
2019-04-07T12:52:54.034Z,29.70
2019-04-07T12:55:41.735Z,29.80
2019-04-07T12:58:30.152Z,30.00
2019-04-07T13:01:15.319Z,29.90
2019-04-07T13:04:01.116Z,30.50
2019-04-07T13:06:47.041Z,30.40
2019-04-07T13:09:29.681Z,29.90
2019-04-07T13:12:15.097Z,29.30
2019-04-07T13:15:03.591Z,28.90
2019-04-07T13:17:52.750Z,28.60
2019-04-07T13:20:52.032Z,28.40
2019-04-07T13:23:50.322Z,28.60
2019-04-07T13:26:37.462Z,28.20
2019-04-07T13:29:20.563Z,28.10
2019-04-07T13:32:06.155Z,28.10
2019-04-07T13:34:44.601Z,28.00
2019-04-07T13:37:36.716Z,27.90
2019-04-07T13:40:22.929Z,27.80
2019-04-07T13:43:21.148Z,27.40
2019-04-07T13:46:22.224Z,28.00
2019-04-07T13:49:08.535Z,27.40
2019-04-07T13:51:59.187Z,27.50
2019-04-07T13:54:48.245Z,26.70
2019-04-07T13:57:40.479Z,26.60
2019-04-07T14:00:35.770Z,26.80
2019-04-07T14:03:42.711Z,26.50
2019-04-07T14:06:29.914Z,26.50
2019-04-07T14:09:17.003Z,26.90
2019-04-07T14:12:21.625Z,26.80
2019-04-07T14:15:01.666Z,27.30
2019-04-07T14:17:43.825Z,27.40
2019-04-07T14:20:31.905Z,27.40
2019-04-07T14:23:12.183Z,26.90
2019-04-07T14:26:03.513Z,26.90
2019-04-07T14:28:41.281Z,27.10
2019-04-07T14:31:35.793Z,27.50
2019-04-07T14:34:36.049Z,27.50
2019-04-07T14:37:26.493Z,27.40
2019-04-07T14:40:21.411Z,27.80
2019-04-07T14:43:12.592Z,28.00
2019-04-07T14:45:55.565Z,28.70
2019-04-07T14:48:32.577Z,28.90
2019-04-07T14:51:17.617Z,29.40
2019-04-07T14:53:57.293Z,29.70
2019-04-07T14:56:44.589Z,30.00
2019-04-07T14:59:42.595Z,30.80
2019-04-07T15:02:13.864Z,32.20
2019-04-07T15:04:47.771Z,31.10
2019-04-07T15:07:31.087Z,31.50
2019-04-07T15:10:11.590Z,31.30
2019-04-07T15:12:45.705Z,31.00
2019-04-07T15:15:15.979Z,31.30
2019-04-07T15:17:45.744Z,30.90
2019-04-07T15:20:16.100Z,30.80
2019-04-07T15:22:47.265Z,31.30
2019-04-07T15:25:16.678Z,32.00
2019-04-07T15:27:45.943Z,32.00
2019-04-07T15:30:16.563Z,31.90
2019-04-07T15:32:46.222Z,31.30
2019-04-07T15:35:16.482Z,31.40
2019-04-07T15:37:46.624Z,31.60
2019-04-07T15:40:16.074Z,31.70
2019-04-07T15:42:50.000Z,32.00
2019-04-07T15:45:16.547Z,32.50
2019-04-07T15:47:47.196Z,33.80
2019-04-07T15:50:18.014Z,33.70
2019-04-07T15:52:47.404Z,34.10
2019-04-07T15:55:16.938Z,34.60
2019-04-07T15:57:46.355Z,35.20
2019-04-07T16:00:16.572Z,35.80
2019-04-07T16:02:46.133Z,36.10
2019-04-07T16:05:15.946Z,36.30
2019-04-07T16:07:46.595Z,36.60
2019-04-07T16:10:18.702Z,36.60
2019-04-07T16:12:52.133Z,37.00
2019-04-07T16:15:18.531Z,37.10
2019-04-07T16:17:49.127Z,37.00
2019-04-07T16:20:24.543Z,36.80
2019-04-07T16:22:51.435Z,36.70
2019-04-07T16:25:25.416Z,36.70
2019-04-07T16:27:52.089Z,37.00
2019-04-07T16:30:21.620Z,37.20
2019-04-07T16:32:50.917Z,38.10
2019-04-07T16:35:20.360Z,38.60
2019-04-07T16:37:49.620Z,39.00
2019-04-07T16:40:19.618Z,38.90
2019-04-07T16:43:04.740Z,38.50
2019-04-07T16:45:19.986Z,38.90
2019-04-07T16:47:49.967Z,39.00
2019-04-07T16:50:20.653Z,39.20
2019-04-07T16:52:50.942Z,39.60
2019-04-07T16:55:41.776Z,39.80
2019-04-07T16:58:11.769Z,40.20
2019-04-07T17:00:41.887Z,40.00
2019-04-07T17:03:11.644Z,40.10
2019-04-07T17:05:41.257Z,40.50
2019-04-07T17:08:10.877Z,41.10
2019-04-07T17:10:41.105Z,41.30
2019-04-07T17:13:18.712Z,41.80
2019-04-07T17:15:42.315Z,41.60
2019-04-07T17:18:39.152Z,42.10
2019-04-07T17:21:15.405Z,42.70
2019-04-07T17:23:45.602Z,42.50
2019-04-07T17:26:15.011Z,43.20
2019-04-07T17:28:46.072Z,43.30
2019-04-07T17:31:15.702Z,43.60
2019-04-07T17:33:45.697Z,43.70
2019-04-07T17:36:17.601Z,44.10
2019-04-07T17:38:52.525Z,44.10
2019-04-07T17:41:24.720Z,44.10
2019-04-07T17:44:03.009Z,44.40
2019-04-07T17:46:47.106Z,44.70
2019-04-07T17:49:30.874Z,45.10
2019-04-07T17:52:15.404Z,45.10
2019-04-07T17:54:54.368Z,45.20
2019-04-07T17:57:37.099Z,45.80
2019-04-07T18:00:26.927Z,45.80
2019-04-07T18:03:18.174Z,46.20
2019-04-07T18:06:00.454Z,46.40
2019-04-07T18:08:45.994Z,46.60
2019-04-07T18:11:25.173Z,47.10
2019-04-07T18:14:13.507Z,47.10
2019-04-07T18:17:00.881Z,47.10
2019-04-07T18:19:59.513Z,47.40
2019-04-07T18:22:58.161Z,47.50
2019-04-07T18:25:52.167Z,48.00
2019-04-07T18:28:31.714Z,48.20
2019-04-07T18:31:20.804Z,48.60
2019-04-07T18:34:13.092Z,49.10
2019-04-07T18:36:52.203Z,49.10
2019-04-07T18:39:54.653Z,49.40
2019-04-07T18:42:43.405Z,49.30
2019-04-07T18:45:23.178Z,50.00
2019-04-07T18:48:12.416Z,51.20
2019-04-07T18:51:05.784Z,50.80
2019-04-07T18:53:48.610Z,50.20
2019-04-07T18:56:44.012Z,51.10
2019-04-07T18:59:33.161Z,50.50
2019-04-07T19:02:21.728Z,51.70
2019-04-07T19:05:14.433Z,51.40
2019-04-07T19:08:09.306Z,51.40
2019-04-07T19:10:45.453Z,51.40
2019-04-07T19:13:26.966Z,51.80
2019-04-07T19:16:18.733Z,51.90
2019-04-07T19:19:03.224Z,52.30
2019-04-07T19:21:59.273Z,53.50
2019-04-07T19:24:47.556Z,52.80
2019-04-07T19:27:42.668Z,53.30
2019-04-07T19:30:31.265Z,53.30
2019-04-07T19:33:14.893Z,53.40
2019-04-07T19:35:51.935Z,53.40
2019-04-07T19:38:43.353Z,54.10
2019-04-07T19:41:40.653Z,54.10
2019-04-07T19:44:33.925Z,54.00
2019-04-07T19:47:16.280Z,54.30
2019-04-07T19:50:03.127Z,54.60
2019-04-07T19:52:46.544Z,54.60
2019-04-07T19:55:26.335Z,54.80
2019-04-07T19:58:14.106Z,55.20
2019-04-07T20:01:06.304Z,55.10
2019-04-07T20:03:53.975Z,55.70
2019-04-07T20:06:41.844Z,55.80
2019-04-07T20:09:30.042Z,55.80
2019-04-07T20:12:18.500Z,56.40
2019-04-07T20:15:16.155Z,56.10
2019-04-07T20:18:05.229Z,56.90
2019-04-07T20:20:43.643Z,56.80
2019-04-07T20:23:35.759Z,57.00
2019-04-07T20:26:33.035Z,57.00
2019-04-07T20:29:22.404Z,57.50
2019-04-07T20:32:00.520Z,57.60
2019-04-07T20:34:48.974Z,57.80
2019-04-07T20:37:37.980Z,57.90
2019-04-07T20:40:38.847Z,58.20
2019-04-07T20:43:28.459Z,59.20
2019-04-07T20:46:19.125Z,59.80
2019-04-07T20:49:06.525Z,59.80
2019-04-07T20:51:54.508Z,59.60
2019-04-07T20:54:48.991Z,60.40
2019-04-07T20:58:10.177Z,61.30
2019-04-07T21:01:05.125Z,61.90
2019-04-07T21:03:53.191Z,60.70
2019-04-07T21:06:44.425Z,60.10
2019-04-07T21:09:24.197Z,60.60
2019-04-07T21:12:17.343Z,61.20
2019-04-07T21:15:18.217Z,62.20
2019-04-07T21:18:04.697Z,62.00
2019-04-07T21:20:48.388Z,63.40
2019-04-07T21:23:39.097Z,65.70
2019-04-07T21:26:27.791Z,66.00
2019-04-07T21:29:10.985Z,67.50
2019-04-07T21:31:56.050Z,67.10
2019-04-07T21:34:51.521Z,66.30
2019-04-07T21:37:49.963Z,66.40
2019-04-07T21:40:28.645Z,65.40
2019-04-07T21:43:06.840Z,66.20
2019-04-07T21:45:58.407Z,66.70
2019-04-07T21:48:53.004Z,66.80
2019-04-07T21:51:32.001Z,68.30
2019-04-07T21:54:23.210Z,67.90
2019-04-07T21:57:09.907Z,68.10
2019-04-07T22:00:07.389Z,67.80
2019-04-07T22:03:16.660Z,67.30
2019-04-07T22:05:57.891Z,68.50
2019-04-07T22:08:31.522Z,68.40
2019-04-07T22:11:01.543Z,68.30
2019-04-07T22:13:33.031Z,69.30
2019-04-07T22:16:03.937Z,69.60
2019-04-07T22:18:33.169Z,70.70
2019-04-07T22:21:03.361Z,71.20
2019-04-07T22:23:33.705Z,70.70
2019-04-07T22:26:03.409Z,71.60
2019-04-07T22:28:33.285Z,72.50
2019-04-07T22:31:03.580Z,74.00
2019-04-07T22:33:33.753Z,76.20
2019-04-07T22:36:03.882Z,76.90
2019-04-07T22:38:33.623Z,78.90
2019-04-07T22:41:06.752Z,75.10
2019-04-07T22:43:34.932Z,74.60
2019-04-07T22:46:14.741Z,74.80
2019-04-07T22:48:36.415Z,75.10
2019-04-07T22:51:09.937Z,76.60
2019-04-07T22:53:37.182Z,76.40
2019-04-07T22:56:07.901Z,79.00
2019-04-07T22:58:38.127Z,79.00
2019-04-07T23:01:07.723Z,79.00
2019-04-07T23:03:37.150Z,81.10
2019-04-07T23:06:06.546Z,81.40
2019-04-07T23:08:37.012Z,82.10
2019-04-07T23:11:06.419Z,82.00
2019-04-07T23:13:35.991Z,84.30
2019-04-07T23:16:10.796Z,83.10
2019-04-07T23:18:36.644Z,86.50
2019-04-07T23:21:06.104Z,86.00
2019-04-07T23:23:36.061Z,87.80
2019-04-07T23:26:05.687Z,88.50
2019-04-07T23:28:35.092Z,91.20
2019-04-07T23:31:05.432Z,90.50
2019-04-07T23:33:34.908Z,91.80
2019-04-07T23:36:04.223Z,91.50
2019-04-07T23:38:34.673Z,90.70
2019-04-07T23:41:04.087Z,91.10
2019-04-07T23:43:33.515Z,92.00
2019-04-07T23:46:03.277Z,92.80
2019-04-07T23:48:33.590Z,93.30
2019-04-07T23:51:03.748Z,92.90
2019-04-07T23:54:11.025Z,92.70
2019-04-07T23:56:43.652Z,92.90
2019-04-07T23:59:14.622Z,93.70
